Ana Sayfa
METAR-TAF:

METAR-TAF

Havaalanları :

Floyd Bennett Memorial Airport

Glens Falls, New York, Amerika Birleşik Devletleri

Enlem: 43-20-28N, Boylam: 073-36-38W, yükseklik: 100 m

Güncel hava durumu gözlemi

Rapor saat 07:53 UTC de 53 dakika önce yapıldı.
Sakin rüzgar
Sıcaklık -9°C
Nem 85%
Basınç 1021 hPa
Görüş mesafesi: 16.1 km
Açık gökyüzü

METAR: KGFL 230753Z AUTO 00000KT 10SM CLR M09/M11 A3014 RMK AO2 SLP216 T10891111

Saat: 03:46 (08:46 UTC)

Tahmin

Rapor saat 05:32 UTC de 3 saat ve 14 dakika önce yapıldı.
Ayın 23'si saat 06 UTC'den ayın 24'si saat 06 UTC'ye kadar geçerli Tahmin
Rüzgar güneybatıdan 3 kt
Görüş mesafesi: 10 km
Açık gökyüzü
Ayın 23'si saat 1600 UTC'den
Rüzgar güneydan 6 kt
Görüş mesafesi: 10 km
Açık gökyüzü
Ayın 24'si saat 0000 UTC'den
Rüzgar değişken yönden 3 kt
Görüş mesafesi: 10 km
Açık gökyüzü

TAF: KGFL 230532Z 2306/2406 22003KT P6SM SKC FM231600 19006KT P6SM SKC FM240000 VRB03KT P6SM SKC

4.000'den fazla havaalanı için hava durumu gözlemleri ve tahminleri (METAR ve TAF raporları).

Kullanılabilir istasyonlar harita üzerinde sarı ve kırmızı noktalarla gösterilir.

İstasyonun adını görmek için fareyi noktanın üzerinde gezdirin.

Sonrasında hava gözlem ve tahminlerini görmek için tıklayın.

Haritayı değiştirmek için: yaklaştırmak için siyah artı işaretli yeşil düğmeye ve uzaklaştırmak için de eksi işaretli düğmeye hızla tıklayın; bitişik haritalar için yeşil okları kullanın.


METAR-TAF: